createdAt,value
2023-03-27T00:01:14.876Z,94879.47
2023-03-27T00:03:43.649Z,94883.88
2023-03-27T00:06:16.242Z,94876.03
2023-03-27T00:08:44.221Z,94886.25
2023-03-27T00:11:12.013Z,94876.44
2023-03-27T00:13:49.162Z,94883.53
2023-03-27T00:16:18.286Z,94870.88
2023-03-27T00:18:46.587Z,94872.06
2023-03-27T00:21:14.363Z,94879.94
2023-03-27T00:23:42.310Z,94884.69
2023-03-27T00:26:09.914Z,94885.16
2023-03-27T00:28:37.391Z,94878.28
2023-03-27T00:31:11.629Z,94884.53
2023-03-27T00:33:39.654Z,94887.50
2023-03-27T00:36:07.895Z,94897.03
2023-03-27T00:38:35.430Z,94888.81
2023-03-27T00:41:03.110Z,94888.66
2023-03-27T00:43:34.001Z,94883.72
2023-03-27T00:46:04.459Z,94891.41
2023-03-27T00:48:35.793Z,94879.88
2023-03-27T00:51:04.506Z,94886.19
2023-03-27T00:53:32.234Z,94888.44
2023-03-27T00:56:02.579Z,94891.09
2023-03-27T00:58:32.998Z,94885.53
2023-03-27T01:01:00.511Z,94867.44
2023-03-27T01:03:32.073Z,94870.19
2023-03-27T01:06:03.014Z,94865.44
2023-03-27T01:08:33.903Z,94866.78
2023-03-27T01:11:15.313Z,94868.44
2023-03-27T01:13:57.773Z,94865.09
2023-03-27T01:16:35.880Z,94866.28
2023-03-27T01:19:22.470Z,94865.47
2023-03-27T01:22:40.682Z,94855.91
2023-03-27T01:25:33.006Z,94867.09
2023-03-27T01:28:17.747Z,94870.19
2023-03-27T01:30:53.517Z,94861.50
2023-03-27T01:34:02.670Z,94862.47
2023-03-27T01:37:15.715Z,94865.63
2023-03-27T01:39:53.022Z,94865.63
2023-03-27T01:42:26.649Z,94864.97
2023-03-27T01:45:03.272Z,94869.72
2023-03-27T01:47:47.823Z,94879.59
2023-03-27T01:50:22.044Z,94877.31
2023-03-27T01:52:56.363Z,94881.56
2023-03-27T01:55:29.161Z,94887.47
2023-03-27T01:58:03.114Z,94891.09
2023-03-27T02:00:51.370Z,94893.56
2023-03-27T02:03:22.519Z,94894.38
2023-03-27T02:05:56.233Z,94894.72
2023-03-27T02:08:27.817Z,94898.19
2023-03-27T02:10:59.405Z,94898.66
2023-03-27T02:13:32.317Z,94900.97
2023-03-27T02:16:02.364Z,94903.63
2023-03-27T02:18:34.350Z,94905.91
2023-03-27T02:21:03.105Z,94904.59
2023-03-27T02:23:31.674Z,94906.72
2023-03-27T02:26:01.652Z,94899.63
2023-03-27T02:28:42.145Z,94913.75
2023-03-27T02:31:36.718Z,94918.06
2023-03-27T02:34:19.351Z,94917.75
2023-03-27T02:36:55.901Z,94921.03
2023-03-27T02:39:27.896Z,94916.59
2023-03-27T02:42:03.502Z,94925.78
2023-03-27T02:44:47.021Z,94929.09
2023-03-27T02:47:20.379Z,94921.03
2023-03-27T02:49:52.418Z,94926.81
2023-03-27T02:52:24.219Z,94927.13
2023-03-27T02:54:56.676Z,94935.53
2023-03-27T02:57:28.942Z,94933.56
2023-03-27T03:00:00.481Z,94936.66
2023-03-27T03:02:34.711Z,94940.28
2023-03-27T03:05:07.095Z,94938.47
2023-03-27T03:07:36.081Z,94941.75
2023-03-27T03:10:03.881Z,94944.38
2023-03-27T03:12:32.748Z,94948.66
2023-03-27T03:15:00.382Z,94954.75
2023-03-27T03:17:27.890Z,94959.69
2023-03-27T03:19:55.403Z,94978.06
2023-03-27T03:22:22.873Z,94982.84
2023-03-27T03:24:50.996Z,95007.16
2023-03-27T03:27:20.832Z,95007.94
2023-03-27T03:29:50.358Z,94998.19
2023-03-27T03:32:17.984Z,95003.28
2023-03-27T03:34:46.607Z,95026.50
2023-03-27T03:37:14.109Z,95020.59
2023-03-27T03:39:42.895Z,95019.50
2023-03-27T03:42:10.655Z,95038.22
2023-03-27T03:44:51.944Z,95034.72
2023-03-27T03:47:19.518Z,95048.38
2023-03-27T03:49:47.025Z,95040.69
2023-03-27T03:52:14.505Z,95038.13
2023-03-27T03:54:42.007Z,95073.66
2023-03-27T03:57:09.571Z,95086.63
2023-03-27T03:59:37.216Z,95092.19
2023-03-27T04:02:06.142Z,95097.53
2023-03-27T04:04:33.674Z,95107.31
2023-03-27T04:07:01.147Z,95117.81
2023-03-27T04:09:28.607Z,95130.22
2023-03-27T04:11:56.138Z,95142.13
2023-03-27T04:14:23.717Z,95130.84
2023-03-27T04:16:51.209Z,95148.81
2023-03-27T04:19:20.029Z,95159.50
2023-03-27T04:21:48.239Z,95170.88
2023-03-27T04:24:18.131Z,95169.63
2023-03-27T04:26:46.579Z,95180.69
2023-03-27T04:29:14.060Z,95179.16
2023-03-27T04:31:46.537Z,95192.16
2023-03-27T04:34:14.234Z,95195.75
2023-03-27T04:36:43.081Z,95162.56
2023-03-27T04:39:10.975Z,95206.25
2023-03-27T04:41:38.755Z,95208.72
2023-03-27T04:44:06.328Z,95223.75
2023-03-27T04:46:33.894Z,95240.44
2023-03-27T04:49:01.386Z,95246.50
2023-03-27T04:51:32.403Z,95247.31
2023-03-27T04:54:04.674Z,95263.31
2023-03-27T04:56:33.756Z,95256.44
2023-03-27T04:59:01.409Z,95260.59
2023-03-27T05:01:28.993Z,95283.31
2023-03-27T05:03:56.632Z,95283.19
2023-03-27T05:06:25.485Z,95288.97
2023-03-27T05:08:53.533Z,95299.16
2023-03-27T05:11:22.409Z,95311.84
2023-03-27T05:13:49.854Z,95325.63
2023-03-27T05:16:18.615Z,95329.78
2023-03-27T05:18:46.180Z,95339.00
2023-03-27T05:21:13.681Z,95341.88
2023-03-27T05:23:41.167Z,95327.97
2023-03-27T05:26:08.912Z,95356.91
2023-03-27T05:28:39.578Z,95358.16
2023-03-27T05:31:10.543Z,95374.69
2023-03-27T05:33:38.102Z,95363.94
2023-03-27T05:36:06.356Z,95377.56
2023-03-27T05:38:34.010Z,95388.19
2023-03-27T05:41:02.250Z,95396.84
2023-03-27T05:43:29.755Z,95408.28
2023-03-27T05:45:58.580Z,95412.38
2023-03-27T05:48:26.135Z,95417.00
2023-03-27T05:50:53.610Z,95426.88
2023-03-27T05:53:21.183Z,95435.94
2023-03-27T05:56:03.098Z,95445.59
2023-03-27T05:58:31.023Z,95453.66
2023-03-27T06:01:00.592Z,95446.50
2023-03-27T06:03:30.103Z,95467.63
2023-03-27T06:05:59.884Z,95480.91
2023-03-27T06:08:28.550Z,95490.19
2023-03-27T06:10:56.293Z,95493.28
2023-03-27T06:13:24.129Z,95496.84
2023-03-27T06:15:54.304Z,95498.22
2023-03-27T06:18:23.409Z,95505.66
2023-03-27T06:20:51.771Z,95510.09
2023-03-27T06:23:19.256Z,95518.81
2023-03-27T06:25:47.511Z,95513.72
2023-03-27T06:28:15.106Z,95521.78
2023-03-27T06:30:42.898Z,95519.84
2023-03-27T06:33:12.010Z,95535.34
2023-03-27T06:35:42.034Z,95541.03
2023-03-27T06:38:09.708Z,95539.63
2023-03-27T06:40:37.192Z,95547.31
2023-03-27T06:43:06.810Z,95559.41
2023-03-27T06:45:37.426Z,95557.91
2023-03-27T06:48:17.244Z,95567.91
2023-03-27T06:50:50.504Z,95587.06
2023-03-27T06:53:27.117Z,95583.03
2023-03-27T06:55:55.314Z,95594.22
2023-03-27T06:58:22.853Z,95598.03
2023-03-27T07:00:51.050Z,95613.06
2023-03-27T07:03:20.049Z,95616.38
2023-03-27T07:05:49.574Z,95630.00
2023-03-27T07:08:23.549Z,95615.44
2023-03-27T07:11:03.775Z,95627.44
2023-03-27T07:13:38.034Z,95641.34
2023-03-27T07:16:06.383Z,95646.25
2023-03-27T07:18:33.981Z,95655.16
2023-03-27T07:21:02.818Z,95653.25
2023-03-27T07:23:30.279Z,95661.78
2023-03-27T07:25:58.922Z,95669.28
2023-03-27T07:28:26.684Z,95673.78
2023-03-27T07:30:54.189Z,95666.88
2023-03-27T07:33:22.563Z,95663.50
2023-03-27T07:35:50.190Z,95669.31
2023-03-27T07:38:19.022Z,95677.63
2023-03-27T07:40:46.884Z,95671.22
2023-03-27T07:43:14.778Z,95679.72
2023-03-27T07:45:42.525Z,95682.66
2023-03-27T07:48:14.232Z,95689.50
2023-03-27T07:50:42.141Z,95703.75
2023-03-27T07:53:09.700Z,95706.53
2023-03-27T07:55:59.611Z,95708.53
2023-03-27T07:58:27.284Z,95713.94
2023-03-27T08:00:55.153Z,95725.22
2023-03-27T08:03:25.915Z,95732.00
2023-03-27T08:05:55.061Z,95729.75
2023-03-27T08:08:23.200Z,95738.78
2023-03-27T08:10:51.978Z,95743.41
2023-03-27T08:13:20.830Z,95738.94
2023-03-27T08:15:48.331Z,95755.47
2023-03-27T08:18:15.895Z,95756.06
2023-03-27T08:20:43.481Z,95758.78
2023-03-27T08:23:10.953Z,95767.78
2023-03-27T08:25:38.442Z,95773.41
2023-03-27T08:28:06.119Z,95783.81
2023-03-27T08:30:35.489Z,95760.94
2023-03-27T08:33:03.679Z,95791.22
2023-03-27T08:35:31.556Z,95791.97
2023-03-27T08:37:59.090Z,95797.41
2023-03-27T08:40:29.515Z,95811.28
2023-03-27T08:43:01.470Z,95804.44
2023-03-27T08:45:33.207Z,95817.25
2023-03-27T08:48:08.084Z,95822.97
2023-03-27T08:50:39.398Z,95826.31
2023-03-27T08:53:16.708Z,95819.78
2023-03-27T08:55:46.109Z,95830.97
2023-03-27T08:58:19.581Z,95843.75
2023-03-27T09:00:54.254Z,95849.84
2023-03-27T09:03:29.612Z,95851.88
2023-03-27T09:06:00.314Z,95856.59
2023-03-27T09:08:40.614Z,95869.31
2023-03-27T09:11:14.629Z,95868.50
2023-03-27T09:13:47.343Z,95876.31
2023-03-27T09:16:21.259Z,95883.22
2023-03-27T09:18:57.710Z,95870.53
2023-03-27T09:21:32.239Z,95897.00
2023-03-27T09:24:02.656Z,95886.69
2023-03-27T09:26:35.462Z,95887.59
2023-03-27T09:29:06.328Z,95895.00
2023-03-27T09:31:40.917Z,95896.25
2023-03-27T09:34:15.439Z,95897.31
2023-03-27T09:36:44.556Z,95899.00
2023-03-27T09:39:21.708Z,95904.34
2023-03-27T09:41:52.018Z,95896.28
2023-03-27T09:44:25.385Z,95897.47
2023-03-27T09:46:58.725Z,95895.22
2023-03-27T09:49:28.443Z,95899.38
2023-03-27T09:51:58.130Z,95898.53
2023-03-27T09:54:28.735Z,95915.97
2023-03-27T09:57:01.833Z,95923.28
2023-03-27T09:59:33.206Z,95914.34
2023-03-27T10:02:09.100Z,95923.50
2023-03-27T10:04:38.618Z,95935.06
2023-03-27T10:07:09.156Z,95933.91
2023-03-27T10:09:38.875Z,95933.63
2023-03-27T10:12:11.864Z,95958.66
2023-03-27T10:14:41.886Z,95958.13
2023-03-27T10:17:22.238Z,95960.06
2023-03-27T10:19:54.975Z,95970.72
2023-03-27T10:22:29.774Z,95961.56
2023-03-27T10:25:01.585Z,95971.06
2023-03-27T10:27:32.303Z,95970.50
2023-03-27T10:29:59.833Z,95991.28
2023-03-27T10:32:44.203Z,96001.47
2023-03-27T10:35:25.093Z,96005.03
2023-03-27T10:37:53.399Z,95987.31
2023-03-27T10:40:22.500Z,96002.72
2023-03-27T10:42:50.125Z,95983.28
2023-03-27T10:45:19.625Z,96007.13
2023-03-27T10:47:50.077Z,96004.63
2023-03-27T10:50:26.217Z,96014.25
2023-03-27T10:53:02.864Z,96017.91
2023-03-27T10:55:44.332Z,96016.66
2023-03-27T10:58:24.263Z,96021.13
2023-03-27T11:00:58.649Z,96017.16
2023-03-27T11:03:33.070Z,96042.28
2023-03-27T11:06:03.794Z,96037.25
2023-03-27T11:08:42.402Z,96040.69
2023-03-27T11:11:15.221Z,96030.69
2023-03-27T11:13:45.242Z,96033.56
2023-03-27T11:16:16.278Z,96032.09
2023-03-27T11:18:49.349Z,96021.56
2023-03-27T11:21:20.688Z,96034.59
2023-03-27T11:23:54.437Z,96045.00
2023-03-27T11:26:24.673Z,96044.91
2023-03-27T11:28:57.502Z,96051.63
2023-03-27T11:31:38.405Z,96049.78
2023-03-27T11:34:11.731Z,96054.69
2023-03-27T11:36:48.299Z,96036.06
2023-03-27T11:39:26.067Z,96059.19
2023-03-27T11:41:55.176Z,96065.00
2023-03-27T11:44:24.650Z,96079.44
2023-03-27T11:47:20.166Z,96082.81
2023-03-27T11:50:04.263Z,96078.38
2023-03-27T11:52:42.022Z,96083.97
2023-03-27T11:55:24.360Z,96096.56
2023-03-27T11:58:06.888Z,96081.81
2023-03-27T12:00:39.434Z,96101.47
2023-03-27T12:03:33.526Z,96084.91
2023-03-27T12:06:14.559Z,96094.88
2023-03-27T12:09:00.250Z,96076.44
2023-03-27T12:11:38.228Z,96086.63
2023-03-27T12:14:28.237Z,96087.50
2023-03-27T12:17:15.689Z,96089.22
2023-03-27T12:19:59.090Z,96088.53
2023-03-27T12:22:36.906Z,96077.22
2023-03-27T12:25:26.293Z,96092.41
2023-03-27T12:28:06.404Z,96087.84
2023-03-27T12:30:43.764Z,96093.84
2023-03-27T12:33:32.873Z,96102.38
2023-03-27T12:36:05.582Z,96114.56
2023-03-27T12:38:38.091Z,96115.94
2023-03-27T12:41:13.922Z,96112.97
2023-03-27T12:43:46.982Z,96103.06
2023-03-27T12:46:31.599Z,96112.22
2023-03-27T12:49:02.531Z,96097.91
2023-03-27T12:51:39.243Z,96101.09
2023-03-27T12:54:24.742Z,96114.97
2023-03-27T12:56:59.759Z,96115.09
2023-03-27T12:59:30.269Z,96120.25
2023-03-27T13:02:26.095Z,96112.75
2023-03-27T13:05:24.498Z,96107.47
2023-03-27T13:08:08.234Z,96114.03
2023-03-27T13:10:46.361Z,96102.06
2023-03-27T13:13:58.670Z,96115.00
2023-03-27T13:16:40.529Z,96121.19
2023-03-27T13:19:23.155Z,96111.75
2023-03-27T13:22:03.655Z,96107.31
2023-03-27T13:24:46.861Z,96125.13
2023-03-27T13:27:31.081Z,96117.94
2023-03-27T13:29:59.590Z,96123.28
2023-03-27T13:32:34.679Z,96138.41
2023-03-27T13:35:08.456Z,96143.41
2023-03-27T13:37:48.093Z,96157.78
2023-03-27T13:40:26.487Z,96170.31
2023-03-27T13:43:01.360Z,96174.38
2023-03-27T13:45:38.677Z,96171.63
2023-03-27T13:48:31.448Z,96167.31
2023-03-27T13:51:34.137Z,96166.09
2023-03-27T13:54:48.673Z,96163.47
2023-03-27T13:57:28.542Z,96144.94
2023-03-27T14:00:37.548Z,96145.47
2023-03-27T14:03:45.171Z,96153.09
2023-03-27T14:06:56.527Z,96157.81
2023-03-27T14:09:38.327Z,96148.50
2023-03-27T14:12:15.022Z,96162.19
2023-03-27T14:14:58.683Z,96175.06
2023-03-27T14:17:53.050Z,96167.81
2023-03-27T14:20:26.077Z,96169.13
2023-03-27T14:22:57.881Z,96178.97
2023-03-27T14:25:31.033Z,96187.19
2023-03-27T14:27:58.630Z,96188.44
2023-03-27T14:30:28.159Z,96182.72
2023-03-27T14:32:57.565Z,96199.69
2023-03-27T14:35:35.880Z,96222.13
2023-03-27T14:38:05.845Z,96234.25
2023-03-27T14:40:35.605Z,96234.75
2023-03-27T14:43:06.154Z,96225.66
2023-03-27T14:45:36.715Z,96227.41
2023-03-27T14:48:07.754Z,96221.41
2023-03-27T14:50:38.605Z,96222.47
2023-03-27T14:53:10.448Z,96210.59
2023-03-27T14:55:42.400Z,96198.94
2023-03-27T14:58:18.322Z,96203.84
2023-03-27T15:00:50.285Z,96195.78
2023-03-27T15:03:20.604Z,96213.16
2023-03-27T15:06:02.121Z,96214.50
2023-03-27T15:08:33.682Z,96222.88
2023-03-27T15:11:01.534Z,96218.72
2023-03-27T15:13:35.309Z,96228.50
2023-03-27T15:16:06.613Z,96214.63
2023-03-27T15:18:39.880Z,96219.63
2023-03-27T15:21:13.604Z,96228.41
2023-03-27T15:23:46.661Z,96237.69
2023-03-27T15:26:19.845Z,96248.31
2023-03-27T15:28:53.355Z,96257.59
2023-03-27T15:31:21.538Z,96241.75
2023-03-27T15:33:54.602Z,96251.88
2023-03-27T15:36:27.648Z,96265.00
2023-03-27T15:38:56.454Z,96270.97
2023-03-27T15:41:38.844Z,96271.31
2023-03-27T15:44:11.225Z,96282.66
2023-03-27T15:46:49.930Z,96276.22
2023-03-27T15:49:32.160Z,96284.84
2023-03-27T15:52:21.703Z,96295.63
2023-03-27T15:54:54.896Z,96289.88
2023-03-27T15:57:22.511Z,96297.84
2023-03-27T15:59:53.067Z,96283.03
2023-03-27T16:02:22.744Z,96292.66
2023-03-27T16:04:53.434Z,96287.16
2023-03-27T16:07:25.102Z,96298.88
2023-03-27T16:09:55.856Z,96298.66
2023-03-27T16:12:28.376Z,96303.53
2023-03-27T16:14:58.052Z,96302.69
2023-03-27T16:17:34.343Z,96298.66
2023-03-27T16:20:07.286Z,96294.78
2023-03-27T16:22:38.152Z,96308.25
2023-03-27T16:25:08.721Z,96306.03
2023-03-27T16:27:38.900Z,96307.22
2023-03-27T16:30:09.137Z,96307.00
2023-03-27T16:32:37.025Z,96309.81
2023-03-27T16:35:04.898Z,96309.72
2023-03-27T16:37:32.392Z,96311.03
2023-03-27T16:40:01.476Z,96309.13
2023-03-27T16:42:28.970Z,96311.53
2023-03-27T16:44:56.425Z,96322.28
2023-03-27T16:47:24.671Z,96322.38
2023-03-27T16:50:09.874Z,96326.69
2023-03-27T16:52:38.194Z,96327.53
2023-03-27T16:55:08.294Z,96333.72
2023-03-27T16:57:35.979Z,96329.59
2023-03-27T17:00:03.778Z,96341.38
2023-03-27T17:02:34.201Z,96338.44
2023-03-27T17:05:02.412Z,96345.31
2023-03-27T17:07:29.942Z,96350.75
2023-03-27T17:09:57.482Z,96348.13
2023-03-27T17:12:27.650Z,96344.78
2023-03-27T17:14:55.345Z,96353.91
2023-03-27T17:17:23.556Z,96362.69
2023-03-27T17:19:51.050Z,96350.66
2023-03-27T17:22:18.546Z,96357.38
2023-03-27T17:24:56.214Z,96359.84
2023-03-27T17:27:26.792Z,96362.28
2023-03-27T17:29:55.906Z,96368.16
2023-03-27T17:32:24.006Z,96379.69
2023-03-27T17:34:52.085Z,96368.59
2023-03-27T17:37:20.110Z,96371.94
2023-03-27T17:39:47.713Z,96378.50
2023-03-27T17:42:15.344Z,96386.53
2023-03-27T17:44:44.998Z,96382.16
2023-03-27T17:47:12.970Z,96391.16
2023-03-27T17:49:40.822Z,96392.75
2023-03-27T17:52:11.265Z,96394.81
2023-03-27T17:54:39.260Z,96398.75
2023-03-27T17:57:06.844Z,96406.53
2023-03-27T17:59:36.321Z,96408.31
2023-03-27T18:02:05.681Z,96414.88
2023-03-27T18:04:34.054Z,96409.25
2023-03-27T18:07:01.542Z,96419.50
2023-03-27T18:09:29.179Z,96414.25
2023-03-27T18:11:56.627Z,96415.81
2023-03-27T18:14:24.433Z,96417.72
2023-03-27T18:16:51.938Z,96428.94
2023-03-27T18:19:20.844Z,96440.75
2023-03-27T18:21:48.319Z,96437.81
2023-03-27T18:24:15.825Z,96443.97
2023-03-27T18:26:43.286Z,96451.31
2023-03-27T18:29:11.435Z,96450.16
2023-03-27T18:31:39.003Z,96454.25
2023-03-27T18:34:06.890Z,96452.91
2023-03-27T18:36:35.793Z,96457.63
2023-03-27T18:39:06.383Z,96455.41
2023-03-27T18:41:35.400Z,96462.00
2023-03-27T18:44:02.901Z,96453.50
2023-03-27T18:46:30.524Z,96458.34
2023-03-27T18:48:58.637Z,96457.81
2023-03-27T18:51:26.204Z,96457.03
2023-03-27T18:53:55.175Z,96445.31
2023-03-27T18:56:22.666Z,96445.84
2023-03-27T18:58:50.484Z,96446.78
2023-03-27T19:01:18.144Z,96449.97
2023-03-27T19:03:45.632Z,96454.69
2023-03-27T19:06:14.187Z,96448.97
2023-03-27T19:08:42.840Z,96461.63
2023-03-27T19:11:12.275Z,96458.22
2023-03-27T19:13:39.753Z,96458.28
2023-03-27T19:16:15.159Z,96457.16
2023-03-27T19:18:43.074Z,96466.94
2023-03-27T19:21:10.719Z,96471.22
2023-03-27T19:23:38.239Z,96460.06
2023-03-27T19:26:12.410Z,96457.75
2023-03-27T19:28:40.556Z,96469.34
2023-03-27T19:31:09.277Z,96477.47
2023-03-27T19:33:37.182Z,96480.25
2023-03-27T19:36:05.431Z,96488.13
2023-03-27T19:38:33.804Z,96497.38
2023-03-27T19:41:02.125Z,96489.41
2023-03-27T19:43:30.982Z,96502.59
2023-03-27T19:46:14.360Z,96507.63
2023-03-27T19:48:44.029Z,96499.03
2023-03-27T19:51:11.593Z,96504.56
2023-03-27T19:53:39.103Z,96523.31
2023-03-27T19:56:06.698Z,96521.84
2023-03-27T19:58:35.828Z,96515.84
2023-03-27T20:01:04.544Z,96524.94
2023-03-27T20:03:33.144Z,96513.09
2023-03-27T20:06:07.518Z,96519.47
2023-03-27T20:08:38.027Z,96523.03
2023-03-27T20:11:06.814Z,96519.03
2023-03-27T20:13:48.907Z,96513.59
2023-03-27T20:16:24.182Z,96521.81
2023-03-27T20:18:55.347Z,96530.88
2023-03-27T20:21:25.605Z,96523.88
2023-03-27T20:23:54.677Z,96525.88
2023-03-27T20:26:23.405Z,96525.13
2023-03-27T20:28:52.878Z,96524.50
2023-03-27T20:31:21.260Z,96528.59
2023-03-27T20:33:48.868Z,96527.28
2023-03-27T20:36:19.614Z,96528.59
2023-03-27T20:38:47.189Z,96534.00
2023-03-27T20:41:15.741Z,96534.19
2023-03-27T20:43:44.863Z,96532.38
2023-03-27T20:46:14.344Z,96536.56
2023-03-27T20:48:44.962Z,96538.25
2023-03-27T20:51:23.907Z,96542.88
2023-03-27T20:53:55.649Z,96534.72
2023-03-27T20:56:24.069Z,96525.50
2023-03-27T20:58:52.158Z,96543.63
2023-03-27T21:01:27.035Z,96533.09
2023-03-27T21:03:58.066Z,96536.19
2023-03-27T21:06:25.786Z,96541.34
2023-03-27T21:08:53.279Z,96540.94
2023-03-27T21:11:20.771Z,96539.34
2023-03-27T21:13:48.222Z,96540.63
2023-03-27T21:16:15.792Z,96545.22
2023-03-27T21:18:44.659Z,96552.13
2023-03-27T21:21:12.167Z,96563.00
2023-03-27T21:23:40.542Z,96556.81
2023-03-27T21:26:08.465Z,96561.13
2023-03-27T21:28:35.945Z,96558.88
2023-03-27T21:31:07.343Z,96554.44
2023-03-27T21:33:34.873Z,96560.22
2023-03-27T21:36:03.995Z,96560.19
2023-03-27T21:38:31.666Z,96571.09
2023-03-27T21:41:01.796Z,96572.75
2023-03-27T21:43:29.412Z,96575.91
2023-03-27T21:45:59.061Z,96573.94
2023-03-27T21:48:26.812Z,96576.84
2023-03-27T21:50:59.418Z,96573.75
2023-03-27T21:53:28.227Z,96575.50
2023-03-27T21:55:56.507Z,96575.09
2023-03-27T21:58:24.613Z,96582.41
2023-03-27T22:00:52.097Z,96583.63
2023-03-27T22:03:19.576Z,96582.78
2023-03-27T22:05:57.399Z,96586.88
2023-03-27T22:08:30.179Z,96582.06
2023-03-27T22:10:59.470Z,96588.94
2023-03-27T22:13:27.353Z,96588.94
2023-03-27T22:15:54.920Z,96587.56
2023-03-27T22:18:23.579Z,96586.72
2023-03-27T22:20:51.198Z,96589.53
2023-03-27T22:23:18.688Z,96591.56
2023-03-27T22:25:53.735Z,96585.97
2023-03-27T22:28:21.252Z,96590.44
2023-03-27T22:30:48.786Z,96588.69
2023-03-27T22:33:16.330Z,96594.91
2023-03-27T22:35:49.170Z,96598.91
2023-03-27T22:38:17.003Z,96608.72
2023-03-27T22:40:44.797Z,96616.44
2023-03-27T22:43:23.293Z,96617.84
2023-03-27T22:45:51.073Z,96615.78
2023-03-27T22:48:18.569Z,96629.97
2023-03-27T22:50:53.524Z,96624.28
2023-03-27T22:53:20.991Z,96635.41
2023-03-27T22:55:49.411Z,96634.97
2023-03-27T22:58:18.638Z,96629.53
2023-03-27T23:00:47.020Z,96622.84
2023-03-27T23:03:15.071Z,96620.72
2023-03-27T23:05:44.047Z,96625.13
2023-03-27T23:08:11.892Z,96631.66
2023-03-27T23:10:39.601Z,96635.47
2023-03-27T23:13:07.782Z,96640.31
2023-03-27T23:15:37.106Z,96643.22
2023-03-27T23:18:05.837Z,96652.72
2023-03-27T23:20:33.405Z,96646.00
2023-03-27T23:23:00.880Z,96652.41
2023-03-27T23:25:28.379Z,96655.97
2023-03-27T23:27:55.857Z,96653.94
2023-03-27T23:30:23.333Z,96656.16
2023-03-27T23:32:52.169Z,96660.53
2023-03-27T23:35:19.931Z,96660.72
2023-03-27T23:37:47.650Z,96671.16
2023-03-27T23:40:15.597Z,96669.38
2023-03-27T23:42:43.102Z,96652.63
2023-03-27T23:45:11.923Z,96670.25
2023-03-27T23:47:39.649Z,96661.47
2023-03-27T23:50:09.493Z,96669.94
2023-03-27T23:52:36.961Z,96667.44
2023-03-27T23:55:04.856Z,96672.66
2023-03-27T23:57:33.811Z,96683.69
